sensor_id;sensor_type;location;lat;lon;timestamp;temperature;humidity
22167;DHT22;11249;52.468;13.776;2023-04-25T00:00:15;8.10;99.90
22167;DHT22;11249;52.468;13.776;2023-04-25T00:02:43;8.00;99.90
22167;DHT22;11249;52.468;13.776;2023-04-25T00:05:10;8.00;99.90
22167;DHT22;11249;52.468;13.776;2023-04-25T00:07:38;8.00;99.90
22167;DHT22;11249;52.468;13.776;2023-04-25T00:10:05;8.00;99.90
22167;DHT22;11249;52.468;13.776;2023-04-25T00:12:32;8.10;99.90
22167;DHT22;11249;52.468;13.776;2023-04-25T00:15:00;8.10;99.90
22167;DHT22;11249;52.468;13.776;2023-04-25T00:17:26;8.10;99.90
22167;DHT22;11249;52.468;13.776;2023-04-25T00:19:53;8.10;99.90
22167;DHT22;11249;52.468;13.776;2023-04-25T00:22:20;8.10;99.90
22167;DHT22;11249;52.468;13.776;2023-04-25T00:24:47;8.10;99.90
22167;DHT22;11249;52.468;13.776;2023-04-25T00:27:14;8.10;99.90
22167;DHT22;11249;52.468;13.776;2023-04-25T00:29:41;8.10;99.90
22167;DHT22;11249;52.468;13.776;2023-04-25T00:32:08;8.10;99.90
22167;DHT22;11249;52.468;13.776;2023-04-25T00:34:34;8.00;99.90
22167;DHT22;11249;52.468;13.776;2023-04-25T00:37:01;8.10;99.90
22167;DHT22;11249;52.468;13.776;2023-04-25T00:39:32;8.10;99.90
22167;DHT22;11249;52.468;13.776;2023-04-25T00:41:59;8.10;99.90
22167;DHT22;11249;52.468;13.776;2023-04-25T00:44:27;8.00;99.90
22167;DHT22;11249;52.468;13.776;2023-04-25T00:46:55;8.10;99.90
22167;DHT22;11249;52.468;13.776;2023-04-25T00:49:23;8.00;99.90
22167;DHT22;11249;52.468;13.776;2023-04-25T00:51:50;8.00;99.90
22167;DHT22;11249;52.468;13.776;2023-04-25T00:54:16;8.10;99.90
22167;DHT22;11249;52.468;13.776;2023-04-25T00:56:44;8.10;99.90
22167;DHT22;11249;52.468;13.776;2023-04-25T00:59:11;8.10;99.90
22167;DHT22;11249;52.468;13.776;2023-04-25T01:01:39;8.10;99.90
22167;DHT22;11249;52.468;13.776;2023-04-25T01:04:06;8.20;99.90
22167;DHT22;11249;52.468;13.776;2023-04-25T01:06:33;8.10;99.90
22167;DHT22;11249;52.468;13.776;2023-04-25T01:09:02;8.20;99.90
22167;DHT22;11249;52.468;13.776;2023-04-25T01:11:29;8.20;99.90
22167;DHT22;11249;52.468;13.776;2023-04-25T01:13:56;8.20;99.90
22167;DHT22;11249;52.468;13.776;2023-04-25T01:16:23;8.20;99.90
22167;DHT22;11249;52.468;13.776;2023-04-25T01:18:54;8.30;99.90
22167;DHT22;11249;52.468;13.776;2023-04-25T01:21:21;8.20;99.90
22167;DHT22;11249;52.468;13.776;2023-04-25T01:23:48;8.30;99.90
22167;DHT22;11249;52.468;13.776;2023-04-25T01:26:15;8.30;99.90
22167;DHT22;11249;52.468;13.776;2023-04-25T01:28:42;8.30;99.90
22167;DHT22;11249;52.468;13.776;2023-04-25T01:31:09;8.40;99.90
22167;DHT22;11249;52.468;13.776;2023-04-25T01:33:36;8.40;99.90
22167;DHT22;11249;52.468;13.776;2023-04-25T01:36:03;8.40;99.90
22167;DHT22;11249;52.468;13.776;2023-04-25T01:38:31;8.40;99.90
22167;DHT22;11249;52.468;13.776;2023-04-25T01:40:58;8.40;99.90
22167;DHT22;11249;52.468;13.776;2023-04-25T01:43:25;8.40;99.90
22167;DHT22;11249;52.468;13.776;2023-04-25T01:45:53;8.50;99.90
22167;DHT22;11249;52.468;13.776;2023-04-25T01:48:20;8.40;99.90
22167;DHT22;11249;52.468;13.776;2023-04-25T01:50:47;8.40;99.90
22167;DHT22;11249;52.468;13.776;2023-04-25T01:53:14;8.50;99.90
22167;DHT22;11249;52.468;13.776;2023-04-25T01:55:41;8.50;99.90
22167;DHT22;11249;52.468;13.776;2023-04-25T01:58:08;8.50;99.90
22167;DHT22;11249;52.468;13.776;2023-04-25T02:00:39;8.60;99.90
22167;DHT22;11249;52.468;13.776;2023-04-25T02:03:07;8.60;99.90
22167;DHT22;11249;52.468;13.776;2023-04-25T02:05:36;8.60;99.90
22167;DHT22;11249;52.468;13.776;2023-04-25T02:08:05;8.70;99.90
22167;DHT22;11249;52.468;13.776;2023-04-25T02:10:33;8.70;99.90
22167;DHT22;11249;52.468;13.776;2023-04-25T02:13:00;8.70;99.90
22167;DHT22;11249;52.468;13.776;2023-04-25T02:15:27;8.70;99.90
22167;DHT22;11249;52.468;13.776;2023-04-25T02:17:54;8.70;99.90
22167;DHT22;11249;52.468;13.776;2023-04-25T02:20:23;8.70;99.90
22167;DHT22;11249;52.468;13.776;2023-04-25T02:22:50;8.70;99.90
22167;DHT22;11249;52.468;13.776;2023-04-25T02:25:18;8.70;99.90
22167;DHT22;11249;52.468;13.776;2023-04-25T02:27:47;8.70;99.90
22167;DHT22;11249;52.468;13.776;2023-04-25T02:30:14;8.70;99.90
22167;DHT22;11249;52.468;13.776;2023-04-25T02:32:41;8.70;99.90
22167;DHT22;11249;52.468;13.776;2023-04-25T02:35:09;8.60;99.90
22167;DHT22;11249;52.468;13.776;2023-04-25T02:37:37;8.70;99.90
22167;DHT22;11249;52.468;13.776;2023-04-25T02:40:04;8.70;99.90
22167;DHT22;11249;52.468;13.776;2023-04-25T02:42:31;8.70;99.90
22167;DHT22;11249;52.468;13.776;2023-04-25T02:44:58;8.70;99.90
22167;DHT22;11249;52.468;13.776;2023-04-25T02:47:25;8.60;99.90
22167;DHT22;11249;52.468;13.776;2023-04-25T02:49:52;8.60;99.90
22167;DHT22;11249;52.468;13.776;2023-04-25T02:52:18;8.70;99.90
22167;DHT22;11249;52.468;13.776;2023-04-25T02:54:45;8.60;99.90
22167;DHT22;11249;52.468;13.776;2023-04-25T02:57:12;8.60;99.90
22167;DHT22;11249;52.468;13.776;2023-04-25T02:59:38;8.60;99.90
22167;DHT22;11249;52.468;13.776;2023-04-25T03:02:05;8.70;99.90
22167;DHT22;11249;52.468;13.776;2023-04-25T03:04:32;8.60;99.90
22167;DHT22;11249;52.468;13.776;2023-04-25T03:07:00;8.60;99.90
22167;DHT22;11249;52.468;13.776;2023-04-25T03:09:27;8.60;99.90
22167;DHT22;11249;52.468;13.776;2023-04-25T03:11:54;8.60;99.90
22167;DHT22;11249;52.468;13.776;2023-04-25T03:14:20;8.60;99.90
22167;DHT22;11249;52.468;13.776;2023-04-25T03:16:47;8.50;99.90
22167;DHT22;11249;52.468;13.776;2023-04-25T03:19:14;8.50;99.90
22167;DHT22;11249;52.468;13.776;2023-04-25T03:21:43;8.50;99.90
22167;DHT22;11249;52.468;13.776;2023-04-25T03:24:10;8.50;99.90
22167;DHT22;11249;52.468;13.776;2023-04-25T03:26:37;8.50;99.90
22167;DHT22;11249;52.468;13.776;2023-04-25T03:29:04;8.60;99.90
22167;DHT22;11249;52.468;13.776;2023-04-25T03:31:31;8.60;99.90
22167;DHT22;11249;52.468;13.776;2023-04-25T03:33:57;8.50;99.90
22167;DHT22;11249;52.468;13.776;2023-04-25T03:36:24;8.40;99.90
22167;DHT22;11249;52.468;13.776;2023-04-25T03:38:51;8.40;99.90
22167;DHT22;11249;52.468;13.776;2023-04-25T03:41:18;8.50;99.90
22167;DHT22;11249;52.468;13.776;2023-04-25T03:43:44;8.40;99.90
22167;DHT22;11249;52.468;13.776;2023-04-25T03:46:11;8.50;99.90
22167;DHT22;11249;52.468;13.776;2023-04-25T03:48:38;8.50;99.90
22167;DHT22;11249;52.468;13.776;2023-04-25T03:51:04;8.40;99.90
22167;DHT22;11249;52.468;13.776;2023-04-25T03:53:31;8.40;99.90
22167;DHT22;11249;52.468;13.776;2023-04-25T03:55:57;8.40;99.90
22167;DHT22;11249;52.468;13.776;2023-04-25T03:58:24;8.40;99.90
22167;DHT22;11249;52.468;13.776;2023-04-25T04:00:51;8.40;99.90
22167;DHT22;11249;52.468;13.776;2023-04-25T04:03:18;8.40;99.90
22167;DHT22;11249;52.468;13.776;2023-04-25T04:05:44;8.40;99.90
22167;DHT22;11249;52.468;13.776;2023-04-25T04:08:11;8.50;99.90
22167;DHT22;11249;52.468;13.776;2023-04-25T04:10:38;8.50;99.90
22167;DHT22;11249;52.468;13.776;2023-04-25T04:13:05;8.50;99.90
22167;DHT22;11249;52.468;13.776;2023-04-25T04:15:31;8.50;99.90
22167;DHT22;11249;52.468;13.776;2023-04-25T04:17:59;8.50;99.90
22167;DHT22;11249;52.468;13.776;2023-04-25T04:20:29;8.50;99.90
22167;DHT22;11249;52.468;13.776;2023-04-25T04:22:59;8.50;99.90
22167;DHT22;11249;52.468;13.776;2023-04-25T04:25:26;8.60;99.90
22167;DHT22;11249;52.468;13.776;2023-04-25T04:27:52;8.50;99.90
22167;DHT22;11249;52.468;13.776;2023-04-25T04:30:22;8.50;99.90
22167;DHT22;11249;52.468;13.776;2023-04-25T04:32:51;8.60;99.90
22167;DHT22;11249;52.468;13.776;2023-04-25T04:35:18;8.60;99.90
22167;DHT22;11249;52.468;13.776;2023-04-25T04:37:45;8.60;99.90
22167;DHT22;11249;52.468;13.776;2023-04-25T04:40:12;8.60;99.90
22167;DHT22;11249;52.468;13.776;2023-04-25T04:42:42;8.60;99.90
22167;DHT22;11249;52.468;13.776;2023-04-25T04:45:10;8.60;99.90
22167;DHT22;11249;52.468;13.776;2023-04-25T04:47:37;8.60;99.90
22167;DHT22;11249;52.468;13.776;2023-04-25T04:50:04;8.70;99.90
22167;DHT22;11249;52.468;13.776;2023-04-25T04:52:30;8.70;99.90
22167;DHT22;11249;52.468;13.776;2023-04-25T04:54:57;8.70;99.90
22167;DHT22;11249;52.468;13.776;2023-04-25T04:57:24;8.70;99.90
22167;DHT22;11249;52.468;13.776;2023-04-25T04:59:51;8.70;99.90
22167;DHT22;11249;52.468;13.776;2023-04-25T05:02:17;8.70;99.90
22167;DHT22;11249;52.468;13.776;2023-04-25T05:04:44;8.70;99.90
22167;DHT22;11249;52.468;13.776;2023-04-25T05:07:11;8.80;99.90
22167;DHT22;11249;52.468;13.776;2023-04-25T05:09:38;8.80;99.90
22167;DHT22;11249;52.468;13.776;2023-04-25T05:12:05;8.90;99.90
22167;DHT22;11249;52.468;13.776;2023-04-25T05:14:32;8.90;99.90
22167;DHT22;11249;52.468;13.776;2023-04-25T05:16:59;8.90;99.90
22167;DHT22;11249;52.468;13.776;2023-04-25T05:19:26;8.90;99.90
22167;DHT22;11249;52.468;13.776;2023-04-25T05:21:53;8.90;99.90
22167;DHT22;11249;52.468;13.776;2023-04-25T05:24:19;8.90;99.90
22167;DHT22;11249;52.468;13.776;2023-04-25T05:26:46;8.90;99.90
22167;DHT22;11249;52.468;13.776;2023-04-25T05:29:12;8.90;99.90
22167;DHT22;11249;52.468;13.776;2023-04-25T05:31:39;8.90;99.90
22167;DHT22;11249;52.468;13.776;2023-04-25T05:34:06;9.00;99.90
22167;DHT22;11249;52.468;13.776;2023-04-25T05:36:33;8.90;99.90
22167;DHT22;11249;52.468;13.776;2023-04-25T05:38:59;8.90;99.90
22167;DHT22;11249;52.468;13.776;2023-04-25T05:41:26;9.00;99.90
22167;DHT22;11249;52.468;13.776;2023-04-25T05:43:53;9.00;99.90
22167;DHT22;11249;52.468;13.776;2023-04-25T05:46:23;9.00;99.90
22167;DHT22;11249;52.468;13.776;2023-04-25T05:48:50;9.00;99.90
22167;DHT22;11249;52.468;13.776;2023-04-25T05:51:16;9.00;99.90
22167;DHT22;11249;52.468;13.776;2023-04-25T05:53:44;9.10;99.90
22167;DHT22;11249;52.468;13.776;2023-04-25T05:56:11;9.10;99.90
22167;DHT22;11249;52.468;13.776;2023-04-25T05:58:38;9.10;99.90
22167;DHT22;11249;52.468;13.776;2023-04-25T06:01:05;9.00;99.90
22167;DHT22;11249;52.468;13.776;2023-04-25T06:03:31;9.10;99.90
22167;DHT22;11249;52.468;13.776;2023-04-25T06:05:58;9.10;99.90
22167;DHT22;11249;52.468;13.776;2023-04-25T06:08:25;9.10;99.90
22167;DHT22;11249;52.468;13.776;2023-04-25T06:10:52;9.20;99.90
22167;DHT22;11249;52.468;13.776;2023-04-25T06:13:19;9.30;99.90
22167;DHT22;11249;52.468;13.776;2023-04-25T06:15:45;9.30;99.90
22167;DHT22;11249;52.468;13.776;2023-04-25T06:18:12;9.40;99.90
22167;DHT22;11249;52.468;13.776;2023-04-25T06:20:39;9.30;99.90
22167;DHT22;11249;52.468;13.776;2023-04-25T06:23:06;9.40;99.90
22167;DHT22;11249;52.468;13.776;2023-04-25T06:25:33;9.50;99.90
22167;DHT22;11249;52.468;13.776;2023-04-25T06:27:59;9.50;99.90
22167;DHT22;11249;52.468;13.776;2023-04-25T06:30:26;9.50;99.90
22167;DHT22;11249;52.468;13.776;2023-04-25T06:32:53;9.50;99.90
22167;DHT22;11249;52.468;13.776;2023-04-25T06:35:20;9.60;99.90
22167;DHT22;11249;52.468;13.776;2023-04-25T06:37:46;9.60;99.90
22167;DHT22;11249;52.468;13.776;2023-04-25T06:40:13;9.70;99.90
22167;DHT22;11249;52.468;13.776;2023-04-25T06:42:41;9.70;99.90
22167;DHT22;11249;52.468;13.776;2023-04-25T06:45:08;9.60;99.90
22167;DHT22;11249;52.468;13.776;2023-04-25T06:47:35;9.60;99.90
22167;DHT22;11249;52.468;13.776;2023-04-25T06:50:01;9.50;99.90
22167;DHT22;11249;52.468;13.776;2023-04-25T06:52:28;9.40;99.90
22167;DHT22;11249;52.468;13.776;2023-04-25T06:54:55;9.40;99.90
22167;DHT22;11249;52.468;13.776;2023-04-25T06:57:21;9.40;99.90
22167;DHT22;11249;52.468;13.776;2023-04-25T06:59:48;9.40;99.90
22167;DHT22;11249;52.468;13.776;2023-04-25T07:02:15;9.40;99.90
22167;DHT22;11249;52.468;13.776;2023-04-25T07:04:42;9.40;99.90
22167;DHT22;11249;52.468;13.776;2023-04-25T07:07:09;9.30;99.90
22167;DHT22;11249;52.468;13.776;2023-04-25T07:09:35;9.40;99.90
22167;DHT22;11249;52.468;13.776;2023-04-25T07:12:02;9.40;99.90
22167;DHT22;11249;52.468;13.776;2023-04-25T07:14:29;9.50;99.90
22167;DHT22;11249;52.468;13.776;2023-04-25T07:16:56;9.50;99.90
22167;DHT22;11249;52.468;13.776;2023-04-25T07:19:23;9.50;99.90
22167;DHT22;11249;52.468;13.776;2023-04-25T07:21:53;9.50;99.90
22167;DHT22;11249;52.468;13.776;2023-04-25T07:24:20;9.50;99.90
22167;DHT22;11249;52.468;13.776;2023-04-25T07:26:46;9.40;99.90
22167;DHT22;11249;52.468;13.776;2023-04-25T07:29:13;9.40;99.90
22167;DHT22;11249;52.468;13.776;2023-04-25T07:31:40;9.40;99.90
22167;DHT22;11249;52.468;13.776;2023-04-25T07:34:06;9.40;99.90
22167;DHT22;11249;52.468;13.776;2023-04-25T07:36:33;9.40;99.90
22167;DHT22;11249;52.468;13.776;2023-04-25T07:39:00;9.40;99.90
22167;DHT22;11249;52.468;13.776;2023-04-25T07:41:27;9.40;99.90
22167;DHT22;11249;52.468;13.776;2023-04-25T07:43:53;9.50;99.90
22167;DHT22;11249;52.468;13.776;2023-04-25T07:46:20;9.40;99.90
22167;DHT22;11249;52.468;13.776;2023-04-25T07:48:47;9.40;99.90
22167;DHT22;11249;52.468;13.776;2023-04-25T07:51:14;9.30;99.90
22167;DHT22;11249;52.468;13.776;2023-04-25T07:53:41;9.30;99.90
22167;DHT22;11249;52.468;13.776;2023-04-25T07:56:08;9.30;99.90
22167;DHT22;11249;52.468;13.776;2023-04-25T07:58:35;9.20;99.90
22167;DHT22;11249;52.468;13.776;2023-04-25T08:01:02;9.20;99.90
22167;DHT22;11249;52.468;13.776;2023-04-25T08:03:29;9.20;99.90
22167;DHT22;11249;52.468;13.776;2023-04-25T08:05:56;9.10;99.90
22167;DHT22;11249;52.468;13.776;2023-04-25T08:08:23;9.20;99.90
22167;DHT22;11249;52.468;13.776;2023-04-25T08:10:50;9.20;99.90
22167;DHT22;11249;52.468;13.776;2023-04-25T08:13:17;9.10;99.90
22167;DHT22;11249;52.468;13.776;2023-04-25T08:15:44;9.10;99.90
22167;DHT22;11249;52.468;13.776;2023-04-25T08:18:10;9.10;99.90
22167;DHT22;11249;52.468;13.776;2023-04-25T08:20:37;9.10;99.90
22167;DHT22;11249;52.468;13.776;2023-04-25T08:23:04;9.20;99.90
22167;DHT22;11249;52.468;13.776;2023-04-25T08:25:30;9.20;99.90
22167;DHT22;11249;52.468;13.776;2023-04-25T08:27:57;9.30;99.90
22167;DHT22;11249;52.468;13.776;2023-04-25T08:30:25;9.30;99.90
22167;DHT22;11249;52.468;13.776;2023-04-25T08:32:53;9.30;99.90
22167;DHT22;11249;52.468;13.776;2023-04-25T08:35:20;9.30;99.90
22167;DHT22;11249;52.468;13.776;2023-04-25T08:37:47;9.30;99.90
22167;DHT22;11249;52.468;13.776;2023-04-25T08:40:15;9.30;99.90
22167;DHT22;11249;52.468;13.776;2023-04-25T08:42:42;9.30;99.90
22167;DHT22;11249;52.468;13.776;2023-04-25T08:45:10;9.20;99.90
22167;DHT22;11249;52.468;13.776;2023-04-25T08:47:38;9.30;99.90
22167;DHT22;11249;52.468;13.776;2023-04-25T08:50:05;9.40;99.90
22167;DHT22;11249;52.468;13.776;2023-04-25T08:52:43;9.40;99.90
22167;DHT22;11249;52.468;13.776;2023-04-25T08:55:12;9.60;99.90
22167;DHT22;11249;52.468;13.776;2023-04-25T08:57:41;9.60;99.90
22167;DHT22;11249;52.468;13.776;2023-04-25T09:00:10;9.60;99.90
22167;DHT22;11249;52.468;13.776;2023-04-25T09:02:39;9.60;99.90
22167;DHT22;11249;52.468;13.776;2023-04-25T09:05:06;9.60;99.90
22167;DHT22;11249;52.468;13.776;2023-04-25T09:07:36;9.70;99.90
22167;DHT22;11249;52.468;13.776;2023-04-25T09:10:02;9.80;99.90
22167;DHT22;11249;52.468;13.776;2023-04-25T09:12:30;10.10;99.90
22167;DHT22;11249;52.468;13.776;2023-04-25T09:15:07;10.40;99.90
22167;DHT22;11249;52.468;13.776;2023-04-25T09:17:34;10.50;99.90
22167;DHT22;11249;52.468;13.776;2023-04-25T09:20:08;10.60;99.90
22167;DHT22;11249;52.468;13.776;2023-04-25T09:22:36;10.80;99.90
22167;DHT22;11249;52.468;13.776;2023-04-25T09:25:11;10.90;99.90
22167;DHT22;11249;52.468;13.776;2023-04-25T09:27:54;11.00;99.90
22167;DHT22;11249;52.468;13.776;2023-04-25T09:30:29;11.10;99.90
22167;DHT22;11249;52.468;13.776;2023-04-25T09:32:57;11.00;99.90
22167;DHT22;11249;52.468;13.776;2023-04-25T09:35:35;10.80;99.90
22167;DHT22;11249;52.468;13.776;2023-04-25T09:38:14;10.90;99.90
22167;DHT22;11249;52.468;13.776;2023-04-25T09:40:41;10.80;99.90
22167;DHT22;11249;52.468;13.776;2023-04-25T09:43:22;10.60;99.90
22167;DHT22;11249;52.468;13.776;2023-04-25T09:45:51;10.50;99.90
22167;DHT22;11249;52.468;13.776;2023-04-25T09:48:21;10.50;99.90
22167;DHT22;11249;52.468;13.776;2023-04-25T09:53:34;10.80;99.90
22167;DHT22;11249;52.468;13.776;2023-04-25T09:56:04;11.00;99.90
22167;DHT22;11249;52.468;13.776;2023-04-25T09:58:36;11.00;99.90
22167;DHT22;11249;52.468;13.776;2023-04-25T10:01:05;11.20;99.90
22167;DHT22;11249;52.468;13.776;2023-04-25T10:03:34;11.20;99.90
22167;DHT22;11249;52.468;13.776;2023-04-25T10:06:04;11.10;99.90
22167;DHT22;11249;52.468;13.776;2023-04-25T10:08:35;11.20;99.90
22167;DHT22;11249;52.468;13.776;2023-04-25T10:11:04;11.00;99.90
22167;DHT22;11249;52.468;13.776;2023-04-25T10:13:32;11.20;99.90
22167;DHT22;11249;52.468;13.776;2023-04-25T10:16:01;11.10;99.90
22167;DHT22;11249;52.468;13.776;2023-04-25T10:18:30;11.00;99.90
22167;DHT22;11249;52.468;13.776;2023-04-25T10:21:01;11.00;99.90
22167;DHT22;11249;52.468;13.776;2023-04-25T10:23:30;11.00;99.90
22167;DHT22;11249;52.468;13.776;2023-04-25T10:25:57;11.10;99.90
22167;DHT22;11249;52.468;13.776;2023-04-25T10:28:25;11.10;99.90
22167;DHT22;11249;52.468;13.776;2023-04-25T10:31:06;11.00;99.90
22167;DHT22;11249;52.468;13.776;2023-04-25T10:33:40;11.00;99.90
22167;DHT22;11249;52.468;13.776;2023-04-25T10:36:20;11.00;99.90
22167;DHT22;11249;52.468;13.776;2023-04-25T10:38:48;11.20;99.90
22167;DHT22;11249;52.468;13.776;2023-04-25T10:41:20;11.30;99.90
22167;DHT22;11249;52.468;13.776;2023-04-25T10:43:49;11.30;99.90
22167;DHT22;11249;52.468;13.776;2023-04-25T10:46:29;11.50;99.90
22167;DHT22;11249;52.468;13.776;2023-04-25T10:48:59;11.50;99.90
22167;DHT22;11249;52.468;13.776;2023-04-25T10:51:28;11.40;99.90
22167;DHT22;11249;52.468;13.776;2023-04-25T10:54:08;11.30;99.90
22167;DHT22;11249;52.468;13.776;2023-04-25T10:56:40;11.40;99.90
22167;DHT22;11249;52.468;13.776;2023-04-25T10:59:13;11.20;99.90
22167;DHT22;11249;52.468;13.776;2023-04-25T11:01:42;11.30;99.90
22167;DHT22;11249;52.468;13.776;2023-04-25T11:04:43;11.30;99.90
22167;DHT22;11249;52.468;13.776;2023-04-25T11:07:29;11.30;99.90
22167;DHT22;11249;52.468;13.776;2023-04-25T11:10:02;11.30;99.90
22167;DHT22;11249;52.468;13.776;2023-04-25T11:12:31;11.30;99.90
22167;DHT22;11249;52.468;13.776;2023-04-25T11:15:05;11.30;99.90
22167;DHT22;11249;52.468;13.776;2023-04-25T11:17:33;11.40;99.90
22167;DHT22;11249;52.468;13.776;2023-04-25T11:20:01;11.30;99.90
22167;DHT22;11249;52.468;13.776;2023-04-25T11:22:28;11.20;99.90
22167;DHT22;11249;52.468;13.776;2023-04-25T11:24:55;11.10;99.90
22167;DHT22;11249;52.468;13.776;2023-04-25T11:27:21;11.00;99.90
22167;DHT22;11249;52.468;13.776;2023-04-25T11:29:48;10.90;99.90
22167;DHT22;11249;52.468;13.776;2023-04-25T11:32:16;11.00;99.90
22167;DHT22;11249;52.468;13.776;2023-04-25T11:34:45;11.00;99.90
22167;DHT22;11249;52.468;13.776;2023-04-25T11:37:12;11.10;99.90
22167;DHT22;11249;52.468;13.776;2023-04-25T11:39:43;11.10;99.90
22167;DHT22;11249;52.468;13.776;2023-04-25T11:42:10;11.20;99.90
22167;DHT22;11249;52.468;13.776;2023-04-25T11:44:39;11.20;99.90
22167;DHT22;11249;52.468;13.776;2023-04-25T11:47:07;11.20;99.90
22167;DHT22;11249;52.468;13.776;2023-04-25T11:49:35;11.20;99.90
22167;DHT22;11249;52.468;13.776;2023-04-25T11:52:02;11.20;99.90
22167;DHT22;11249;52.468;13.776;2023-04-25T11:54:29;11.30;99.90
22167;DHT22;11249;52.468;13.776;2023-04-25T11:56:56;11.20;99.90
22167;DHT22;11249;52.468;13.776;2023-04-25T11:59:24;11.10;99.90
22167;DHT22;11249;52.468;13.776;2023-04-25T12:01:51;10.80;99.90
22167;DHT22;11249;52.468;13.776;2023-04-25T12:04:23;10.60;99.90
22167;DHT22;11249;52.468;13.776;2023-04-25T12:06:55;10.50;99.90
22167;DHT22;11249;52.468;13.776;2023-04-25T12:09:30;10.50;99.90
22167;DHT22;11249;52.468;13.776;2023-04-25T12:11:59;10.60;99.90
22167;DHT22;11249;52.468;13.776;2023-04-25T12:14:32;10.70;99.90
22167;DHT22;11249;52.468;13.776;2023-04-25T12:17:01;10.60;99.90
22167;DHT22;11249;52.468;13.776;2023-04-25T12:19:37;10.50;99.90
22167;DHT22;11249;52.468;13.776;2023-04-25T12:22:22;10.40;99.90
22167;DHT22;11249;52.468;13.776;2023-04-25T12:24:49;10.30;99.90
22167;DHT22;11249;52.468;13.776;2023-04-25T12:27:17;10.40;99.90
22167;DHT22;11249;52.468;13.776;2023-04-25T12:29:53;10.60;99.90
22167;DHT22;11249;52.468;13.776;2023-04-25T12:32:21;10.70;99.90
22167;DHT22;11249;52.468;13.776;2023-04-25T12:34:47;10.80;99.90
22167;DHT22;11249;52.468;13.776;2023-04-25T12:37:14;11.00;99.90
22167;DHT22;11249;52.468;13.776;2023-04-25T12:39:41;11.10;99.90
22167;DHT22;11249;52.468;13.776;2023-04-25T12:42:08;11.20;99.90
22167;DHT22;11249;52.468;13.776;2023-04-25T12:44:38;11.10;99.90
22167;DHT22;11249;52.468;13.776;2023-04-25T12:47:05;11.10;99.90
22167;DHT22;11249;52.468;13.776;2023-04-25T12:49:32;11.20;99.90
22167;DHT22;11249;52.468;13.776;2023-04-25T12:51:59;11.00;99.90
22167;DHT22;11249;52.468;13.776;2023-04-25T12:54:26;10.90;99.90
22167;DHT22;11249;52.468;13.776;2023-04-25T12:56:52;11.00;99.90
22167;DHT22;11249;52.468;13.776;2023-04-25T12:59:20;11.00;99.90
22167;DHT22;11249;52.468;13.776;2023-04-25T13:01:47;11.00;99.90
22167;DHT22;11249;52.468;13.776;2023-04-25T13:04:15;11.10;99.90
22167;DHT22;11249;52.468;13.776;2023-04-25T13:06:42;11.30;99.90
22167;DHT22;11249;52.468;13.776;2023-04-25T13:09:09;11.40;99.90
22167;DHT22;11249;52.468;13.776;2023-04-25T13:11:39;11.50;99.90
22167;DHT22;11249;52.468;13.776;2023-04-25T13:14:06;11.40;99.90
22167;DHT22;11249;52.468;13.776;2023-04-25T13:16:33;11.70;99.90
22167;DHT22;11249;52.468;13.776;2023-04-25T13:19:02;11.70;99.90
22167;DHT22;11249;52.468;13.776;2023-04-25T13:21:30;11.80;99.90
22167;DHT22;11249;52.468;13.776;2023-04-25T13:24:00;11.80;99.90
22167;DHT22;11249;52.468;13.776;2023-04-25T13:26:26;11.40;99.90
22167;DHT22;11249;52.468;13.776;2023-04-25T13:28:53;11.40;99.90
22167;DHT22;11249;52.468;13.776;2023-04-25T13:31:20;11.30;99.90
22167;DHT22;11249;52.468;13.776;2023-04-25T13:33:47;11.20;99.90
22167;DHT22;11249;52.468;13.776;2023-04-25T13:36:14;11.30;99.90
22167;DHT22;11249;52.468;13.776;2023-04-25T13:38:41;11.30;99.90
22167;DHT22;11249;52.468;13.776;2023-04-25T13:41:10;11.20;99.90
22167;DHT22;11249;52.468;13.776;2023-04-25T13:43:42;11.50;99.90
22167;DHT22;11249;52.468;13.776;2023-04-25T13:46:08;11.50;99.90
22167;DHT22;11249;52.468;13.776;2023-04-25T13:48:56;11.90;99.90
22167;DHT22;11249;52.468;13.776;2023-04-25T13:51:35;12.50;99.90
22167;DHT22;11249;52.468;13.776;2023-04-25T13:54:02;13.00;99.90
22167;DHT22;11249;52.468;13.776;2023-04-25T13:56:29;12.90;99.90
22167;DHT22;11249;52.468;13.776;2023-04-25T13:58:56;12.60;99.90
22167;DHT22;11249;52.468;13.776;2023-04-25T14:01:23;12.20;99.90
22167;DHT22;11249;52.468;13.776;2023-04-25T14:03:50;12.00;99.90
22167;DHT22;11249;52.468;13.776;2023-04-25T14:06:17;11.50;99.90
22167;DHT22;11249;52.468;13.776;2023-04-25T14:08:50;11.30;99.90
22167;DHT22;11249;52.468;13.776;2023-04-25T14:11:17;11.10;99.90
22167;DHT22;11249;52.468;13.776;2023-04-25T14:13:45;11.00;99.90
22167;DHT22;11249;52.468;13.776;2023-04-25T14:16:12;10.80;99.90
22167;DHT22;11249;52.468;13.776;2023-04-25T14:18:39;10.70;99.90
22167;DHT22;11249;52.468;13.776;2023-04-25T14:21:05;10.70;99.90
22167;DHT22;11249;52.468;13.776;2023-04-25T14:23:32;10.70;99.90
22167;DHT22;11249;52.468;13.776;2023-04-25T14:25:58;10.70;99.90
22167;DHT22;11249;52.468;13.776;2023-04-25T14:28:25;10.80;99.90
22167;DHT22;11249;52.468;13.776;2023-04-25T14:30:52;11.20;99.90
22167;DHT22;11249;52.468;13.776;2023-04-25T14:33:19;11.90;99.90
22167;DHT22;11249;52.468;13.776;2023-04-25T14:35:46;12.50;99.90
22167;DHT22;11249;52.468;13.776;2023-04-25T14:38:12;12.50;99.90
22167;DHT22;11249;52.468;13.776;2023-04-25T14:40:39;12.30;99.90
22167;DHT22;11249;52.468;13.776;2023-04-25T14:43:06;11.80;99.90
22167;DHT22;11249;52.468;13.776;2023-04-25T14:45:33;11.40;99.90
22167;DHT22;11249;52.468;13.776;2023-04-25T14:48:00;11.20;99.90
22167;DHT22;11249;52.468;13.776;2023-04-25T14:50:27;11.00;99.90
22167;DHT22;11249;52.468;13.776;2023-04-25T14:52:54;10.80;99.90
22167;DHT22;11249;52.468;13.776;2023-04-25T14:55:25;10.70;99.90
22167;DHT22;11249;52.468;13.776;2023-04-25T14:57:55;10.80;99.90
22167;DHT22;11249;52.468;13.776;2023-04-25T15:00:23;10.60;99.90
22167;DHT22;11249;52.468;13.776;2023-04-25T15:02:51;10.60;99.90
22167;DHT22;11249;52.468;13.776;2023-04-25T15:05:18;10.60;99.90
22167;DHT22;11249;52.468;13.776;2023-04-25T15:07:46;10.70;99.90
22167;DHT22;11249;52.468;13.776;2023-04-25T15:10:14;10.70;99.90
22167;DHT22;11249;52.468;13.776;2023-04-25T15:12:43;10.80;99.90
22167;DHT22;11249;52.468;13.776;2023-04-25T15:15:12;10.90;99.90
22167;DHT22;11249;52.468;13.776;2023-04-25T15:17:51;10.80;99.90
22167;DHT22;11249;52.468;13.776;2023-04-25T15:20:17;10.70;99.90
22167;DHT22;11249;52.468;13.776;2023-04-25T15:22:44;10.70;99.90
22167;DHT22;11249;52.468;13.776;2023-04-25T15:25:12;10.80;99.90
22167;DHT22;11249;52.468;13.776;2023-04-25T15:27:39;10.60;99.90
22167;DHT22;11249;52.468;13.776;2023-04-25T15:30:11;10.60;99.90
22167;DHT22;11249;52.468;13.776;2023-04-25T15:32:39;10.60;99.90